Time;durP1;ratioP1;P1;durP2;ratioP2;P2;SDS_P1;SDS_P2;PMS_P1;PMS_P2;Temp;Humidity;BMP_temperature;BMP_pressure;BME280_temperature;BME280_humidity;BME280_pressure;Samples;Min_cycle;Max_cycle;Signal;HPM_P1;HPM_P2
2023/06/17 12:14:27;;;;;;;4.15;2.58;;;12.80;74.10;;;;;;6304191;22;20153;-66
2023/06/17 12:16:55;;;;;;;5.75;3.20;;;12.80;74.10;;;;;;6306229;22;20015;-66
2023/06/17 12:19:24;;;;;;;5.03;2.78;;;12.80;74.00;;;;;;6279791;22;19995;-66
2023/06/17 12:21:51;;;;;;;6.63;2.60;;;12.70;74.00;;;;;;6307236;22;20009;-66
2023/06/17 12:24:19;;;;;;;3.10;2.30;;;12.80;73.80;;;;;;6306570;22;20003;-66
2023/06/17 12:26:46;;;;;;;3.85;2.40;;;12.80;73.50;;;;;;6306667;22;19996;-66
2023/06/17 12:29:14;;;;;;;4.40;2.17;;;12.80;73.10;;;;;;6306620;22;20011;-66
2023/06/17 12:31:43;;;;;;;5.25;2.90;;;12.80;73.10;;;;;;6277883;22;20015;-66
2023/06/17 12:34:10;;;;;;;6.45;2.47;;;12.80;73.00;;;;;;6304735;22;20003;-66
2023/06/17 12:36:38;;;;;;;3.15;2.20;;;12.80;72.90;;;;;;6305576;22;20434;-66
2023/06/17 12:39:05;;;;;;;3.22;2.15;;;12.80;72.80;;;;;;6278432;22;20064;-66
2023/06/17 12:41:33;;;;;;;4.95;2.15;;;12.80;73.10;;;;;;6305020;22;20014;-66
2023/06/17 12:44:00;;;;;;;4.63;2.00;;;12.70;73.20;;;;;;6305731;22;20004;-66
2023/06/17 12:46:28;;;;;;;4.38;2.53;;;12.70;73.30;;;;;;6305674;22;20342;-65
2023/06/17 12:48:56;;;;;;;5.80;2.25;;;12.70;72.90;;;;;;6304770;22;19999;-66
2023/06/17 12:51:23;;;;;;;4.32;2.20;;;12.70;72.50;;;;;;6306136;22;20011;-66
2023/06/17 12:53:50;;;;;;;5.63;2.35;;;12.80;72.70;;;;;;6305842;22;20427;-66
2023/06/17 12:56:18;;;;;;;4.32;2.40;;;12.70;72.20;;;;;;6305237;22;20010;-66
2023/06/17 12:58:45;;;;;;;5.07;2.30;;;12.70;72.70;;;;;;6304918;22;20018;-65
2023/06/17 13:01:13;;;;;;;4.93;2.13;;;12.70;72.70;;;;;;6305114;22;19996;-64
2023/06/17 13:03:41;;;;;;;4.65;2.78;;;12.70;72.60;;;;;;6306440;22;20003;-65
2023/06/17 13:06:08;;;;;;;2.97;2.10;;;12.70;72.70;;;;;;6305865;22;20014;-65
2023/06/17 13:08:36;;;;;;;4.45;2.22;;;12.70;72.70;;;;;;6278962;22;20373;-64
2023/06/17 13:11:03;;;;;;;3.50;2.30;;;12.60;72.80;;;;;;6305698;22;20022;-65
2023/06/17 13:13:31;;;;;;;6.18;2.35;;;12.50;73.20;;;;;;6305736;22;20022;-64
2023/06/17 13:15:59;;;;;;;8.10;2.55;;;12.50;73.60;;;;;;6305919;22;20003;-65
2023/06/17 13:18:26;;;;;;;3.05;1.95;;;12.40;73.80;;;;;;6305230;22;20027;-65
2023/06/17 13:20:54;;;;;;;4.50;2.17;;;12.30;74.00;;;;;;6305116;22;20501;-66
2023/06/17 13:23:21;;;;;;;5.97;2.13;;;12.30;73.80;;;;;;6305914;22;20003;-66
2023/06/17 13:25:49;;;;;;;7.40;2.17;;;12.30;74.00;;;;;;6305774;22;20337;-66
2023/06/17 13:28:19;;;;;;;4.35;2.35;;;12.20;74.10;;;;;;6306020;22;20003;-66
2023/06/17 13:30:49;;;;;;;4.05;2.05;;;12.20;74.00;;;;;;6305914;22;20038;-66
2023/06/17 13:33:17;;;;;;;4.88;2.20;;;12.20;73.80;;;;;;6305802;22;20011;-66
2023/06/17 13:35:44;;;;;;;3.03;2.15;;;12.30;73.60;;;;;;6305605;22;20311;-66
2023/06/17 13:38:11;;;;;;;3.53;2.15;;;12.30;73.10;;;;;;6306258;22;20080;-66
2023/06/17 13:40:39;;;;;;;5.38;1.88;;;12.30;73.10;;;;;;6306194;22;20014;-66
2023/06/17 13:43:07;;;;;;;4.63;1.88;;;12.30;72.70;;;;;;6304877;22;20010;-66
2023/06/17 13:45:34;;;;;;;2.67;2.13;;;12.30;72.50;;;;;;6305925;22;20007;-65
2023/06/17 13:48:01;;;;;;;3.15;1.95;;;12.30;71.80;;;;;;6305759;22;20068;-66
2023/06/17 13:50:29;;;;;;;2.75;1.55;;;12.40;71.50;;;;;;6305342;22;20011;-66
2023/06/17 13:52:58;;;;;;;3.78;1.70;;;12.40;71.20;;;;;;6304776;22;20441;-65
2023/06/17 13:55:28;;;;;;;3.53;1.90;;;12.30;71.20;;;;;;6306237;22;20003;-66
2023/06/17 13:57:56;;;;;;;2.72;1.92;;;12.20;71.80;;;;;;6306710;22;20066;-66
2023/06/17 14:00:23;;;;;;;3.85;1.70;;;12.20;72.20;;;;;;6304863;22;20070;-64
2023/06/17 14:02:51;;;;;;;1.80;1.60;;;12.20;72.30;;;;;;6304268;22;19999;-65
2023/06/17 14:05:18;;;;;;;6.15;2.03;;;12.20;72.10;;;;;;6305322;22;20330;-65
2023/06/17 14:07:46;;;;;;;2.58;1.90;;;12.20;72.20;;;;;;6277740;22;20012;-65
2023/06/17 14:10:14;;;;;;;3.10;1.95;;;12.10;72.70;;;;;;6304613;22;20003;-65
2023/06/17 14:12:41;;;;;;;4.90;2.05;;;12.10;72.90;;;;;;6304722;22;20430;-65
2023/06/17 14:15:09;;;;;;;5.28;1.90;;;12.10;72.50;;;;;;6305640;22;19999;-65
2023/06/17 14:17:37;;;;;;;3.40;1.80;;;12.10;72.40;;;;;;6305990;22;20007;-65
2023/06/17 14:20:05;;;;;;;2.65;1.77;;;12.10;72.30;;;;;;6305126;22;20006;-65
2023/06/17 14:22:32;;;;;;;2.10;1.52;;;12.10;72.20;;;;;;6305761;22;20003;-65
2023/06/17 14:25:00;;;;;;;3.50;1.60;;;12.10;72.50;;;;;;6304635;22;20007;-66
2023/06/17 14:27:38;;;;;;;2.60;1.80;;;12.10;72.80;;;;;;6305619;22;20102;-65
2023/06/17 14:30:06;;;;;;;3.42;2.00;;;12.00;72.90;;;;;;6304472;22;20014;-65
2023/06/17 14:32:34;;;;;;;5.53;2.00;;;12.00;72.90;;;;;;6305398;22;20018;-65
2023/06/17 14:35:01;;;;;;;4.15;2.47;;;11.90;73.00;;;;;;6277450;22;20007;-66
2023/06/17 14:37:29;;;;;;;3.42;2.13;;;11.90;73.40;;;;;;6305060;22;20015;-65
2023/06/17 14:50:36;;;;;;;3.72;1.90;;;11.70;73.90;;;;;;6300939;22;20049;-65
2023/06/17 14:53:04;;;;;;;5.10;2.33;;;11.70;74.00;;;;;;6304481;22;20019;-65
2023/06/17 14:55:31;;;;;;;3.15;1.92;;;11.70;74.50;;;;;;6305196;22;20007;-65
2023/06/17 14:57:59;;;;;;;7.10;2.08;;;11.60;75.10;;;;;;6305317;22;19999;-65
2023/06/17 15:00:26;;;;;;;4.40;1.60;;;11.50;75.70;;;;;;6278916;22;20078;-65
2023/06/17 15:02:56;;;;;;;7.90;2.10;;;11.50;75.50;;;;;;6305305;22;20003;-65
2023/06/17 15:05:26;;;;;;;6.63;2.80;;;11.50;74.90;;;;;;6307022;22;20007;-65
2023/06/17 15:07:54;;;;;;;4.95;2.88;;;11.50;74.40;;;;;;6306942;22;20007;-66
2023/06/17 15:10:21;;;;;;;4.57;2.40;;;11.50;74.50;;;;;;6306725;22;20050;-65
2023/06/17 15:12:49;;;;;;;4.13;2.80;;;11.50;74.40;;;;;;6306689;22;20330;-65
2023/06/17 15:15:16;;;;;;;4.35;2.63;;;11.50;75.20;;;;;;6307128;22;20027;-65
2023/06/17 15:17:44;;;;;;;4.75;2.60;;;11.40;75.60;;;;;;6307008;22;20422;-65
2023/06/17 15:20:11;;;;;;;3.55;2.45;;;11.40;75.80;;;;;;6307255;22;20153;-65
2023/06/17 15:22:39;;;;;;;5.03;2.67;;;11.30;76.10;;;;;;6307704;22;20026;-64
2023/06/17 15:25:07;;;;;;;4.82;2.83;;;11.20;75.60;;;;;;6306696;22;20043;-65
2023/06/17 15:27:34;;;;;;;6.65;2.75;;;11.10;76.10;;;;;;6280399;22;20025;-65
2023/06/17 15:30:02;;;;;;;5.30;2.92;;;11.10;76.60;;;;;;6307234;22;20083;-65
2023/06/17 15:32:29;;;;;;;7.28;2.90;;;10.90;77.10;;;;;;6307401;22;20011;-65
2023/06/17 15:34:58;;;;;;;6.70;2.90;;;10.90;77.40;;;;;;6307062;22;19999;-65
2023/06/17 15:37:29;;;;;;;4.28;2.90;;;10.90;78.10;;;;;;6306836;22;20023;-64
2023/06/17 15:39:56;;;;;;;4.22;2.60;;;10.80;78.40;;;;;;6305337;22;20004;-64
2023/06/17 15:42:23;;;;;;;4.85;3.17;;;10.80;78.60;;;;;;6306306;22;20009;-65
2023/06/17 15:44:51;;;;;;;5.60;3.10;;;10.70;78.50;;;;;;6306136;22;20006;-65
2023/06/17 15:47:18;;;;;;;9.55;3.28;;;10.70;78.60;;;;;;6305942;22;19999;-65
2023/06/17 15:49:49;;;;;;;7.40;3.33;;;10.80;78.40;;;;;;6307155;22;20034;-65
2023/06/17 15:52:17;;;;;;;4.65;2.90;;;10.80;78.10;;;;;;6306465;22;20023;-65
2023/06/17 15:54:45;;;;;;;5.35;3.42;;;10.80;78.10;;;;;;6307231;22;20350;-65
2023/06/17 15:57:13;;;;;;;5.40;3.05;;;10.90;77.30;;;;;;6306233;22;20052;-65
2023/06/17 15:59:40;;;;;;;5.18;3.13;;;10.80;78.00;;;;;;6306779;22;20011;-65
2023/06/17 16:02:08;;;;;;;7.18;3.55;;;10.80;78.00;;;;;;6306755;22;20003;-65
2023/06/17 16:04:39;;;;;;;5.80;3.42;;;10.80;77.70;;;;;;6306699;22;20489;-65
2023/06/17 16:07:06;;;;;;;;;;;10.80;77.10;;;;;;6307562;22;20003;-65
2023/06/17 16:09:35;;;;;;;8.57;3.90;;;10.70;77.60;;;;;;6279761;22;19903;-65
2023/06/17 16:12:03;;;;;;;8.48;3.45;;;10.70;77.80;;;;;;6278118;22;20346;-65
2023/06/17 16:14:35;;;;;;;5.68;3.35;;;10.60;78.00;;;;;;6305128;22;20003;-64
2023/06/17 16:17:03;;;;;;;7.00;3.78;;;10.50;78.70;;;;;;6279854;22;20008;-64
2023/06/17 16:19:31;;;;;;;6.45;3.42;;;10.30;78.50;;;;;;6279343;22;20003;-64
2023/06/17 16:22:02;;;;;;;9.13;3.97;;;10.40;78.70;;;;;;6306174;22;20449;-65
2023/06/17 16:24:30;;;;;;;5.35;3.45;;;10.30;79.10;;;;;;6306252;22;20334;-64
2023/06/17 16:26:58;;;;;;;7.55;3.42;;;10.30;79.20;;;;;;6306088;22;20038;-64
2023/06/17 16:29:26;;;;;;;8.25;3.58;;;10.30;78.50;;;;;;6306012;22;20000;-65
2023/06/17 16:31:53;;;;;;;6.63;3.78;;;10.40;78.20;;;;;;6279953;22;20019;-64
2023/06/17 16:34:21;;;;;;;5.57;3.38;;;10.30;78.60;;;;;;6306761;22;20425;-65
2023/06/17 16:36:48;;;;;;;8.07;3.22;;;10.30;78.80;;;;;;6307034;22;20025;-65
2023/06/17 16:39:16;;;;;;;5.97;3.40;;;10.20;78.90;;;;;;6306583;22;20462;-65
2023/06/17 16:41:43;;;;;;;6.28;3.70;;;10.20;79.10;;;;;;6305649;22;19999;-65
2023/06/17 16:44:11;;;;;;;7.70;3.55;;;10.10;79.60;;;;;;6306781;22;20034;-64
2023/06/17 16:46:38;;;;;;;6.30;3.28;;;10.10;79.40;;;;;;6306217;22;20031;-64
2023/06/17 17:13:22;;;;;;;8.35;3.40;;;9.70;79.50;;;;;;6298951;22;20481;-63
2023/06/17 17:15:50;;;;;;;7.43;4.18;;;9.80;79.60;;;;;;6305146;22;20018;-64
2023/06/17 17:18:17;;;;;;;7.45;4.10;;;9.80;79.80;;;;;;6306359;22;19999;-64
2023/06/17 17:20:44;;;;;;;8.48;3.97;;;9.80;79.60;;;;;;6305160;22;20007;-64
2023/06/17 17:23:12;;;;;;;6.60;4.10;;;9.70;79.60;;;;;;6306576;22;20000;-64
2023/06/17 17:25:39;;;;;;;6.00;3.80;;;9.70;79.50;;;;;;6304770;22;20003;-63
2023/06/17 17:28:07;;;;;;;7.05;3.92;;;9.70;79.30;;;;;;6306527;22;19999;-64
2023/06/17 17:30:34;;;;;;;6.93;3.63;;;9.70;79.50;;;;;;6305303;22;20470;-64
2023/06/17 17:33:02;;;;;;;5.57;4.03;;;9.70;79.30;;;;;;6306169;22;20057;-64
2023/06/17 17:35:29;;;;;;;7.35;3.75;;;9.70;79.30;;;;;;6306054;22;20003;-64
2023/06/17 17:37:56;;;;;;;8.63;3.83;;;9.70;79.40;;;;;;6303668;22;19999;-64
2023/06/17 17:40:24;;;;;;;7.10;3.95;;;9.70;79.10;;;;;;6303934;22;20126;-64
2023/06/17 17:42:52;;;;;;;9.40;3.63;;;9.70;79.10;;;;;;6306178;22;20010;-64
2023/06/17 17:45:19;;;;;;;9.65;3.70;;;9.70;79.20;;;;;;6305685;22;20000;-64
2023/06/17 17:47:47;;;;;;;5.93;3.75;;;9.70;79.70;;;;;;6305939;22;20090;-64
2023/06/17 17:50:14;;;;;;;5.75;3.30;;;9.60;79.60;;;;;;6305080;22;20088;-65
2023/06/17 17:52:42;;;;;;;4.32;3.05;;;9.50;79.80;;;;;;6305758;22;20034;-64
2023/06/17 17:55:09;;;;;;;6.07;3.45;;;9.50;80.10;;;;;;6304812;22;19996;-64
2023/06/17 17:57:37;;;;;;;6.97;3.35;;;9.40;80.10;;;;;;6305449;22;19999;-64
2023/06/17 18:00:05;;;;;;;6.97;3.65;;;9.50;79.60;;;;;;6305112;22;20082;-64
2023/06/17 18:02:32;;;;;;;7.03;3.53;;;9.40;79.90;;;;;;6305472;22;20300;-64
2023/06/17 18:05:00;;;;;;;4.70;3.13;;;9.40;79.50;;;;;;6305599;22;20008;-64
2023/06/17 18:07:27;;;;;;;7.72;3.40;;;9.40;79.60;;;;;;6306316;22;20041;-64
2023/06/17 18:09:55;;;;;;;7.68;3.63;;;9.40;79.70;;;;;;6305170;22;20410;-64
2023/06/17 18:12:22;;;;;;;6.50;3.03;;;9.40;79.70;;;;;;6305032;22;20015;-64
2023/06/17 18:14:50;;;;;;;7.70;3.25;;;9.40;79.60;;;;;;6305095;22;20342;-64
2023/06/17 18:17:17;;;;;;;4.85;2.92;;;9.40;79.50;;;;;;6305239;22;20007;-64
2023/06/17 18:19:45;;;;;;;8.13;3.55;;;9.40;79.70;;;;;;6304803;22;20437;-65
2023/06/17 18:22:12;;;;;;;5.57;3.47;;;9.50;79.60;;;;;;6305455;22;20076;-65
2023/06/17 18:24:40;;;;;;;5.90;3.63;;;9.40;79.50;;;;;;6302742;22;20007;-65
2023/06/17 18:27:07;;;;;;;6.18;3.33;;;9.40;79.70;;;;;;6301317;22;20007;-65
2023/06/17 18:29:35;;;;;;;7.18;3.40;;;9.30;79.60;;;;;;6301788;22;20023;-66
2023/06/17 18:32:02;;;;;;;7.70;3.50;;;9.30;79.80;;;;;;6301173;22;20094;-66
2023/06/17 18:34:30;;;;;;;5.22;3.22;;;9.30;79.70;;;;;;6299514;22;20453;-67
2023/06/17 18:36:57;;;;;;;5.47;2.97;;;9.40;79.80;;;;;;6301205;22;20102;-66
2023/06/17 18:39:25;;;;;;;5.63;3.38;;;9.30;79.70;;;;;;6301297;22;20012;-66
2023/06/17 18:41:52;;;;;;;5.70;2.80;;;9.40;79.80;;;;;;6273589;22;20420;-67
2023/06/17 18:44:19;;;;;;;5.78;3.33;;;9.40;79.60;;;;;;6301662;22;20426;-65
2023/06/17 18:46:47;;;;;;;4.13;3.17;;;9.30;79.70;;;;;;6300077;22;20003;-65
2023/06/17 18:49:24;;;;;;;7.50;3.30;;;9.30;79.90;;;;;;6301596;22;20073;-65
2023/06/17 18:51:52;;;;;;;6.80;3.67;;;9.30;79.90;;;;;;6301441;22;20023;-65
2023/06/17 18:54:19;;;;;;;5.68;3.50;;;9.30;80.50;;;;;;6301181;22;20422;-65
2023/06/17 18:56:48;;;;;;;8.93;3.47;;;9.20;80.30;;;;;;6301353;22;20078;-65
2023/06/17 18:59:15;;;;;;;4.97;3.05;;;9.30;80.30;;;;;;6301389;22;20338;-65
2023/06/17 19:01:43;;;;;;;6.85;3.30;;;9.20;80.40;;;;;;6301177;22;20007;-65
2023/06/17 19:04:10;;;;;;;6.13;3.40;;;9.20;80.90;;;;;;6301194;22;20091;-65
2023/06/17 19:06:38;;;;;;;5.25;3.10;;;9.20;80.80;;;;;;6301045;22;20021;-66
2023/06/17 19:09:06;;;;;;;8.38;3.25;;;9.20;80.80;;;;;;6301646;22;20012;-65
2023/06/17 19:11:34;;;;;;;5.43;3.58;;;9.20;80.60;;;;;;6301240;22;20080;-65
2023/06/17 19:14:02;;;;;;;7.80;3.22;;;9.20;80.30;;;;;;6297993;22;20030;-66
2023/06/17 19:16:30;;;;;;;7.25;3.38;;;9.20;80.20;;;;;;6301723;22;20397;-66
2023/06/17 19:18:58;;;;;;;6.13;3.08;;;9.20;80.30;;;;;;6301247;22;20437;-66
2023/06/17 19:21:25;;;;;;;10.60;3.92;;;9.20;80.30;;;;;;6301158;22;20011;-66
2023/06/17 19:23:53;;;;;;;6.40;3.42;;;9.20;80.10;;;;;;6300219;22;20007;-66
2023/06/17 19:26:21;;;;;;;6.50;3.25;;;9.20;79.80;;;;;;6300808;22;20003;-66
2023/06/17 19:28:48;;;;;;;7.20;3.20;;;9.20;79.70;;;;;;6274245;22;20010;-66
2023/06/17 19:31:15;;;;;;;7.88;3.28;;;9.20;79.70;;;;;;6300932;22;20320;-66
2023/06/17 19:33:44;;;;;;;5.43;3.40;;;9.20;79.70;;;;;;6301873;22;20086;-66
2023/06/17 19:36:11;;;;;;;7.82;3.10;;;9.20;79.70;;;;;;6274671;22;20003;-66
2023/06/17 19:38:38;;;;;;;5.78;3.17;;;9.10;80.00;;;;;;6301300;22;20312;-66
2023/06/17 19:41:06;;;;;;;7.40;2.92;;;9.10;80.10;;;;;;6300625;22;20430;-66
2023/06/17 19:43:35;;;;;;;7.28;2.75;;;9.10;80.40;;;;;;6302009;22;19999;-67
2023/06/17 19:46:03;;;;;;;5.18;3.10;;;9.10;80.40;;;;;;6301439;22;20007;-65
2023/06/17 19:48:31;;;;;;;5.75;3.10;;;9.00;80.70;;;;;;6301307;22;20003;-68
2023/06/17 19:51:01;;;;;;;5.35;2.95;;;8.90;80.80;;;;;;6302806;22;20011;-67
2023/06/17 19:53:28;;;;;;;7.05;3.00;;;8.80;81.00;;;;;;6302907;22;20010;-66
2023/06/17 19:55:56;;;;;;;7.88;2.95;;;8.80;81.20;;;;;;6303023;22;20007;-66
2023/06/17 19:58:23;;;;;;;5.60;3.33;;;8.70;81.40;;;;;;6302968;22;20079;-66
2023/06/17 20:00:51;;;;;;;5.65;3.28;;;8.60;81.60;;;;;;6303083;22;20461;-66
2023/06/17 20:03:18;;;;;;;5.93;2.97;;;8.50;81.50;;;;;;6303314;22;20015;-66
2023/06/17 20:05:45;;;;;;;5.82;3.22;;;8.50;81.70;;;;;;6303553;22;19995;-66
2023/06/17 20:08:13;;;;;;;4.72;2.63;;;8.60;81.60;;;;;;6302844;22;20037;-66
2023/06/17 20:10:41;;;;;;;6.22;2.88;;;8.60;81.70;;;;;;6302396;22;20403;-67
2023/06/17 20:13:09;;;;;;;7.03;3.10;;;8.60;81.60;;;;;;6299831;22;20485;-66
2023/06/17 20:15:37;;;;;;;9.38;3.28;;;8.70;81.40;;;;;;6302716;22;20003;-66
2023/06/17 20:18:04;;;;;;;5.72;2.90;;;8.70;81.30;;;;;;6303198;22;20330;-66
2023/06/17 20:20:32;;;;;;;3.72;2.70;;;8.70;81.30;;;;;;6275549;22;20022;-66
2023/06/17 20:23:00;;;;;;;6.47;3.30;;;8.70;81.10;;;;;;6303317;22;19999;-66
2023/06/17 20:25:28;;;;;;;8.93;3.15;;;8.70;81.20;;;;;;6302944;22;20038;-67
2023/06/17 20:27:55;;;;;;;8.07;3.08;;;8.70;81.30;;;;;;6303059;22;20017;-66
2023/06/17 20:30:23;;;;;;;4.38;2.95;;;8.70;81.40;;;;;;6302553;22;20015;-66
2023/06/17 20:32:50;;;;;;;7.03;3.30;;;8.70;81.30;;;;;;6299830;22;20031;-65
2023/06/17 20:35:18;;;;;;;5.18;2.85;;;8.70;81.40;;;;;;6302952;22;20039;-66
2023/06/17 20:37:45;;;;;;;9.88;3.15;;;8.70;81.30;;;;;;6275469;22;20445;-66
2023/06/17 20:40:12;;;;;;;5.53;3.00;;;8.70;81.60;;;;;;6301670;22;20003;-66
2023/06/17 20:42:40;;;;;;;8.63;3.10;;;8.70;81.60;;;;;;6302985;22;20003;-66
2023/06/17 20:45:08;;;;;;;6.93;3.05;;;8.70;81.50;;;;;;6303602;22;20034;-66
2023/06/17 20:47:36;;;;;;;5.82;3.17;;;8.60;81.60;;;;;;6302896;22;20014;-67
2023/06/17 20:50:03;;;;;;;7.60;3.20;;;8.70;81.70;;;;;;6302112;22;20069;-67
2023/06/17 20:52:31;;;;;;;6.00;2.88;;;8.70;82.00;;;;;;6303675;22;20337;-66
2023/06/17 20:54:58;;;;;;;3.83;2.50;;;8.60;82.20;;;;;;6303188;22;20003;-66
2023/06/17 20:57:26;;;;;;;8.98;2.92;;;8.60;82.20;;;;;;6303170;22;20011;-66
2023/06/17 20:59:55;;;;;;;6.13;2.85;;;8.50;82.10;;;;;;6303150;22;20063;-66
2023/06/17 21:02:22;;;;;;;6.45;2.97;;;8.40;81.90;;;;;;6301940;22;20501;-67
2023/06/17 21:04:50;;;;;;;4.78;2.97;;;8.30;82.10;;;;;;6302697;22;20476;-66
2023/06/17 21:07:18;;;;;;;7.70;3.05;;;8.20;82.10;;;;;;6302610;22;20014;-65
2023/06/17 21:09:45;;;;;;;7.45;3.65;;;8.30;82.60;;;;;;6302169;22;20444;-65
2023/06/17 21:12:12;;;;;;;5.32;2.92;;;8.30;82.50;;;;;;6304155;22;20015;-66
2023/06/17 21:14:40;;;;;;;8.18;3.22;;;8.30;82.40;;;;;;6301047;22;20019;-66
2023/06/17 21:17:07;;;;;;;6.85;3.28;;;8.30;82.40;;;;;;6302746;22;20021;-66
2023/06/17 21:19:35;;;;;;;6.47;3.35;;;8.30;82.60;;;;;;6301858;22;20007;-69
2023/06/17 21:22:02;;;;;;;9.27;3.58;;;8.30;82.60;;;;;;6301300;22;19995;-68
2023/06/17 21:24:30;;;;;;;5.88;3.42;;;8.30;82.60;;;;;;6302886;22;20357;-68
